PHTO/ITO METAR and TAF weather

Enter ICAO airport designator
Station Type Date Time Source
PHTO METAR 2020/07/10 22:53 UTC NOAA

PHTO 102253Z 09013KT 10SM FEW034 29/19 A3005 RMK AO2 SLP175 T02890194


Station Type Date Time Source
PHTO Decoded METAR 2020/07/10 22:53 UTC NOAA

HILO INTERNATIONAL AIRPORT, HI, United States (PHTO) 19-43N 155-03W 12M
Jul 10, 2020 - 06:53 PM EDT / 2020.07.10 2253 UTC
Wind: from the E (090 degrees) at 15 MPH (13 KT):0
Visibility: 10 mile(s):0
Sky conditions: mostly clear
Temperature: 84.0 F (28.9 C)
Dew Point: 66.9 F (19.4 C)
Relative Humidity: 56%
Pressure (altimeter): 30.05 in. Hg (1017 hPa)
ob: PHTO 102253Z 09013KT 10SM FEW034 29/19 A3005 RMK AO2 SLP175 T02890194
cycle: 23

Station Type Date Time Source
PHTO TAF 2020/07/10 18:39 UTC NOAA

TAF PHTO 101737Z 1018/1118 14008KT P6SM VCSH BKN027 BKN035 OVC060
FM102000 06009KT P6SM VCSH SCT025 BKN045
FM110600 24006KT P6SM VCSH SCT025 BKN045

Example: see airport list